createdAt,value
2022-12-31T00:01:10.338Z,98770.97
2022-12-31T00:03:37.383Z,98764.97
2022-12-31T00:06:17.515Z,98764.97
2022-12-31T00:08:44.972Z,98779.50
2022-12-31T00:11:11.415Z,98774.34
2022-12-31T00:13:38.535Z,98770.91
2022-12-31T00:16:12.205Z,98779.47
2022-12-31T00:18:39.435Z,98789.75
2022-12-31T00:21:09.636Z,98796.53
2022-12-31T00:23:36.337Z,98802.50
2022-12-31T00:26:03.685Z,98797.38
2022-12-31T00:28:30.160Z,98805.03
2022-12-31T00:30:56.620Z,98797.31
2022-12-31T00:33:23.074Z,98800.75
2022-12-31T00:35:49.463Z,98805.03
2022-12-31T00:38:16.328Z,98805.03
2022-12-31T00:40:42.724Z,98803.41
2022-12-31T00:43:09.174Z,98802.53
2022-12-31T00:45:35.636Z,98804.22
2022-12-31T00:48:02.187Z,98794.75
2022-12-31T00:50:28.622Z,98794.72
2022-12-31T00:52:55.038Z,98804.13
2022-12-31T00:55:21.990Z,98806.63
2022-12-31T00:57:48.388Z,98812.56
2022-12-31T01:00:15.335Z,98822.03
2022-12-31T01:02:41.933Z,98834.06
2022-12-31T01:05:08.686Z,98828.13
2022-12-31T01:07:37.128Z,98823.81
2022-12-31T01:10:03.797Z,98825.59
2022-12-31T01:12:30.255Z,98837.59
2022-12-31T01:14:56.693Z,98835.88
2022-12-31T01:17:23.121Z,98843.56
2022-12-31T01:19:49.599Z,98852.97
2022-12-31T01:22:16.106Z,98850.44
2022-12-31T01:24:42.546Z,98854.75
2022-12-31T01:27:09.005Z,98847.03
2022-12-31T01:29:35.448Z,98840.19
2022-12-31T01:32:01.880Z,98827.34
2022-12-31T01:34:28.325Z,98820.44
2022-12-31T01:36:54.752Z,98813.59
2022-12-31T01:39:21.382Z,98806.69
2022-12-31T01:41:47.911Z,98809.28
2022-12-31T01:44:23.482Z,98819.59
2022-12-31T01:46:53.697Z,98818.75
2022-12-31T01:49:29.972Z,98819.59
2022-12-31T01:52:16.743Z,98828.16
2022-12-31T01:54:45.234Z,98848.69
2022-12-31T01:57:12.828Z,98846.97
2022-12-31T01:59:39.240Z,98844.41
2022-12-31T02:02:06.035Z,98841.00
2022-12-31T02:04:32.563Z,98839.34
2022-12-31T02:07:07.180Z,98848.72
2022-12-31T02:09:35.747Z,98850.41
2022-12-31T02:12:02.173Z,98859.84
2022-12-31T02:14:33.830Z,98853.00
2022-12-31T02:17:09.357Z,98864.13
2022-12-31T02:19:35.802Z,98853.81
2022-12-31T02:22:20.939Z,98860.66
2022-12-31T02:25:06.428Z,98861.50
2022-12-31T02:27:35.599Z,98863.22
2022-12-31T02:30:01.999Z,98876.91
2022-12-31T02:32:48.787Z,98877.75
2022-12-31T02:35:19.459Z,98879.44
2022-12-31T02:37:47.865Z,98885.44
2022-12-31T02:40:17.398Z,98877.72
2022-12-31T02:42:43.786Z,98870.84
2022-12-31T02:45:14.005Z,98872.56
2022-12-31T02:47:59.294Z,98866.56
2022-12-31T02:50:30.736Z,98867.41
2022-12-31T02:53:00.151Z,98864.81
2022-12-31T02:55:35.543Z,98870.78
2022-12-31T02:58:01.919Z,98875.97
2022-12-31T03:00:50.002Z,98869.13
2022-12-31T03:03:17.118Z,98864.00
2022-12-31T03:05:44.684Z,98856.28
2022-12-31T03:08:11.134Z,98859.69
2022-12-31T03:10:37.562Z,98850.25
2022-12-31T03:13:03.949Z,98848.56
2022-12-31T03:15:33.422Z,98866.56
2022-12-31T03:18:05.991Z,98863.97
2022-12-31T03:21:01.954Z,98871.69
2022-12-31T03:23:28.358Z,98879.34
2022-12-31T03:25:56.435Z,98878.50
2022-12-31T03:28:24.465Z,98877.63
2022-12-31T03:30:52.671Z,98881.94
2022-12-31T03:33:19.269Z,98883.66
2022-12-31T03:35:46.355Z,98892.22
2022-12-31T03:38:12.835Z,98905.91
2022-12-31T03:40:40.454Z,98906.75
2022-12-31T03:43:07.345Z,98913.63
2022-12-31T03:45:34.657Z,98932.47
2022-12-31T03:48:01.996Z,98919.63
2022-12-31T03:50:28.822Z,98914.47
2022-12-31T03:52:55.199Z,98912.78
2022-12-31T03:55:21.657Z,98915.38
2022-12-31T03:57:48.095Z,98912.78
2022-12-31T04:00:17.020Z,98920.47
2022-12-31T04:02:43.653Z,98927.28
2022-12-31T04:05:10.576Z,98927.28
2022-12-31T04:07:37.243Z,98914.44
2022-12-31T04:10:04.752Z,98910.19
2022-12-31T04:12:31.426Z,98900.81
2022-12-31T04:14:58.013Z,98899.03
2022-12-31T04:17:24.758Z,98915.34
2022-12-31T04:19:51.248Z,98906.75
2022-12-31T04:22:17.980Z,98910.22
2022-12-31T04:24:44.877Z,98921.34
2022-12-31T04:27:11.894Z,98923.91
2022-12-31T04:29:38.723Z,98918.78
2022-12-31T04:32:06.020Z,98923.09
2022-12-31T04:34:32.574Z,98939.34
2022-12-31T04:36:59.008Z,98945.31
2022-12-31T04:39:25.463Z,98940.19
2022-12-31T04:41:52.330Z,98941.03
2022-12-31T04:44:19.243Z,98945.31
2022-12-31T04:46:45.993Z,98962.41
2022-12-31T04:49:12.591Z,98966.72
2022-12-31T04:51:39.537Z,98964.16
2022-12-31T04:54:06.066Z,98968.41
2022-12-31T04:56:32.951Z,98967.53
2022-12-31T04:58:59.402Z,98964.13
2022-12-31T05:01:26.086Z,98945.25
2022-12-31T05:03:52.633Z,98961.50
2022-12-31T05:06:20.060Z,98958.94
2022-12-31T05:08:46.947Z,98962.31
2022-12-31T05:11:13.428Z,98964.88
2022-12-31T05:13:39.941Z,98959.75
2022-12-31T05:16:07.154Z,98965.75
2022-12-31T05:18:34.052Z,98970.03
2022-12-31T05:21:00.544Z,98967.44
2022-12-31T05:23:27.001Z,98973.44
2022-12-31T05:25:53.622Z,98976.91
2022-12-31T05:28:20.356Z,98970.91
2022-12-31T05:30:50.600Z,98970.03
2022-12-31T05:33:17.530Z,98977.72
2022-12-31T05:35:44.018Z,98982.03
2022-12-31T05:38:11.296Z,98982.88
2022-12-31T05:40:37.710Z,98997.44
2022-12-31T05:43:04.103Z,98982.88
2022-12-31T05:45:31.344Z,98993.16
2022-12-31T05:47:58.034Z,98987.16
2022-12-31T05:50:24.739Z,98970.06
2022-12-31T05:52:51.181Z,98979.44
2022-12-31T05:55:17.772Z,98983.72
2022-12-31T05:57:44.189Z,98984.53
2022-12-31T06:00:10.966Z,98986.28
2022-12-31T06:02:37.501Z,98987.06
2022-12-31T06:05:04.396Z,98986.22
2022-12-31T06:07:30.940Z,98991.38
2022-12-31T06:09:57.371Z,98998.19
2022-12-31T06:12:23.755Z,99005.91
2022-12-31T06:14:50.299Z,99008.53
2022-12-31T06:17:16.805Z,98998.25
2022-12-31T06:19:43.240Z,99011.09
2022-12-31T06:22:09.694Z,99007.69
2022-12-31T06:24:36.103Z,99014.53
2022-12-31T06:27:02.583Z,99007.66
2022-12-31T06:29:28.989Z,99004.22
2022-12-31T06:31:55.360Z,99011.06
2022-12-31T06:34:21.743Z,99016.22
2022-12-31T06:36:48.202Z,99020.47
2022-12-31T06:39:14.752Z,99023.03
2022-12-31T06:41:41.284Z,99020.47
2022-12-31T06:44:07.736Z,99021.31
2022-12-31T06:46:34.201Z,99017.03
2022-12-31T06:49:00.650Z,99014.44
2022-12-31T06:51:27.212Z,99029.03
2022-12-31T06:53:53.701Z,99018.75
2022-12-31T06:56:21.665Z,99022.22
2022-12-31T06:58:48.762Z,99029.94
2022-12-31T07:01:36.329Z,99028.19
2022-12-31T07:04:05.978Z,99035.91
2022-12-31T07:06:44.214Z,99041.91
2022-12-31T07:09:23.648Z,99041.94
2022-12-31T07:11:49.995Z,99039.38
2022-12-31T07:14:23.813Z,99045.34
2022-12-31T07:16:55.160Z,99049.66
2022-12-31T07:19:38.965Z,99061.63
2022-12-31T07:22:05.485Z,99071.88
2022-12-31T07:24:31.960Z,99082.16
2022-12-31T07:26:58.369Z,99092.41
2022-12-31T07:29:30.582Z,99094.19
2022-12-31T07:32:06.203Z,99080.44
2022-12-31T07:34:38.561Z,99083.00
2022-12-31T07:37:11.916Z,99082.13
2022-12-31T07:39:41.142Z,99082.13
2022-12-31T07:42:20.797Z,99090.72
2022-12-31T07:45:03.133Z,99087.25
2022-12-31T07:47:30.071Z,99084.72
2022-12-31T07:49:57.397Z,99080.41
2022-12-31T07:52:24.071Z,99080.41
2022-12-31T07:54:50.536Z,99080.41
2022-12-31T07:57:18.342Z,99092.41
2022-12-31T07:59:47.839Z,99095.84
2022-12-31T08:02:32.628Z,99099.25
2022-12-31T08:05:08.384Z,99101.00
2022-12-31T08:07:34.859Z,99103.56
2022-12-31T08:10:17.316Z,99105.28
2022-12-31T08:12:45.944Z,99108.72
2022-12-31T08:15:13.575Z,99107.84
2022-12-31T08:17:40.175Z,99103.53
2022-12-31T08:20:06.936Z,99106.13
2022-12-31T08:22:52.094Z,99118.97
2022-12-31T08:25:18.542Z,99130.13
2022-12-31T08:27:51.170Z,99126.66
2022-12-31T08:30:21.614Z,99124.13
2022-12-31T08:32:51.014Z,99115.53
2022-12-31T08:35:20.557Z,99115.53
2022-12-31T08:37:47.006Z,99114.66
2022-12-31T08:40:26.410Z,99111.28
2022-12-31T08:43:07.288Z,99119.78
2022-12-31T08:45:39.232Z,99118.06
2022-12-31T08:48:18.767Z,99119.75
2022-12-31T08:50:45.430Z,99136.00
2022-12-31T08:53:12.034Z,99125.72
2022-12-31T08:55:38.700Z,99134.28
2022-12-31T08:58:23.663Z,99133.41
2022-12-31T09:00:53.405Z,99142.00
2022-12-31T09:03:38.751Z,99141.13
2022-12-31T09:06:08.952Z,99154.84
2022-12-31T09:08:51.347Z,99151.41
2022-12-31T09:11:43.503Z,99154.00
2022-12-31T09:14:15.665Z,99152.25
2022-12-31T09:16:53.997Z,99143.69
2022-12-31T09:19:20.590Z,99135.94
2022-12-31T09:21:47.299Z,99140.22
2022-12-31T09:24:15.030Z,99144.53
2022-12-31T09:26:50.656Z,99142.81
2022-12-31T09:29:27.477Z,99147.09
2022-12-31T09:31:58.051Z,99149.69
2022-12-31T09:34:35.902Z,99155.69
2022-12-31T09:37:24.058Z,99129.09
2022-12-31T09:39:51.178Z,99136.78
2022-12-31T09:42:23.012Z,99136.81
2022-12-31T09:45:08.478Z,99141.13
2022-12-31T09:47:53.960Z,99141.97
2022-12-31T09:50:39.254Z,99133.41
2022-12-31T09:53:26.064Z,99127.38
2022-12-31T09:55:55.594Z,99117.94
2022-12-31T09:58:35.043Z,99115.31
2022-12-31T10:01:08.352Z,99116.19
2022-12-31T10:03:39.792Z,99116.13
2022-12-31T10:06:17.292Z,99125.56
2022-12-31T10:09:02.458Z,99119.59
2022-12-31T10:11:29.049Z,99126.47
2022-12-31T10:14:18.915Z,99133.31
2022-12-31T10:16:48.892Z,99138.44
2022-12-31T10:19:24.613Z,99137.59
2022-12-31T10:22:09.828Z,99143.59
2022-12-31T10:24:39.068Z,99147.06
2022-12-31T10:27:25.561Z,99135.06
2022-12-31T10:30:02.124Z,99129.03
2022-12-31T10:32:51.886Z,99126.47
2022-12-31T10:35:37.317Z,99135.91
2022-12-31T10:38:16.367Z,99133.25
2022-12-31T10:40:45.949Z,99117.84
2022-12-31T10:43:27.975Z,99119.53
2022-12-31T10:46:05.248Z,99122.91
2022-12-31T10:48:50.444Z,99119.44
2022-12-31T10:51:19.522Z,99120.25
2022-12-31T10:53:45.959Z,99124.56
2022-12-31T10:56:15.389Z,99119.41
2022-12-31T10:59:01.746Z,99108.25
2022-12-31T11:01:33.253Z,99109.94
2022-12-31T11:04:08.665Z,99109.88
2022-12-31T11:06:41.407Z,99115.88
2022-12-31T11:09:16.899Z,99141.59
2022-12-31T11:12:02.499Z,99141.66
2022-12-31T11:14:31.916Z,99130.50
2022-12-31T11:17:01.535Z,99140.78
2022-12-31T11:19:46.159Z,99130.47
2022-12-31T11:22:25.059Z,99129.56
2022-12-31T11:25:10.386Z,99123.53
2022-12-31T11:27:58.483Z,99104.69
2022-12-31T11:30:45.936Z,99101.16
2022-12-31T11:33:28.649Z,99102.78
2022-12-31T11:36:14.210Z,99101.03
2022-12-31T11:38:50.951Z,99101.88
2022-12-31T11:41:43.753Z,99105.28
2022-12-31T11:44:19.681Z,99101.72
2022-12-31T11:47:04.484Z,99101.63
2022-12-31T11:49:30.931Z,99099.03
2022-12-31T11:52:21.198Z,99104.16
2022-12-31T11:54:51.353Z,99100.66
2022-12-31T11:57:24.422Z,99099.81
2022-12-31T11:59:54.527Z,99100.63
2022-12-31T12:02:25.201Z,99104.84
2022-12-31T12:04:52.681Z,99105.69
2022-12-31T12:07:19.729Z,99104.81
2022-12-31T12:09:46.204Z,99103.97
2022-12-31T12:12:13.337Z,99104.00
2022-12-31T12:14:41.193Z,99109.94
2022-12-31T12:17:09.489Z,99097.94
2022-12-31T12:19:41.629Z,99090.22
2022-12-31T12:22:12.777Z,99082.38
2022-12-31T12:24:39.483Z,99088.47
2022-12-31T12:27:20.330Z,99077.25
2022-12-31T12:29:47.512Z,99071.31
2022-12-31T12:32:17.469Z,99073.91
2022-12-31T12:34:49.379Z,99087.69
2022-12-31T12:37:35.461Z,99093.66
2022-12-31T12:40:02.255Z,99094.50
2022-12-31T12:42:28.888Z,99090.19
2022-12-31T12:45:07.053Z,99082.53
2022-12-31T12:47:33.765Z,99079.88
2022-12-31T12:50:00.448Z,99075.53
2022-12-31T12:52:37.255Z,99079.00
2022-12-31T12:55:03.715Z,99080.72
2022-12-31T12:57:33.242Z,99083.31
2022-12-31T13:00:18.530Z,99085.03
2022-12-31T13:03:03.622Z,99093.59
2022-12-31T13:05:49.009Z,99090.22
2022-12-31T13:08:21.671Z,99090.16
2022-12-31T13:11:07.229Z,99085.84
2022-12-31T13:13:46.234Z,99090.13
2022-12-31T13:16:22.592Z,99099.56
2022-12-31T13:18:54.938Z,99085.00
2022-12-31T13:21:44.503Z,99091.00
2022-12-31T13:24:33.625Z,99100.56
2022-12-31T13:27:15.295Z,99100.63
2022-12-31T13:29:42.614Z,99094.56
2022-12-31T13:32:12.679Z,99105.72
2022-12-31T13:34:41.695Z,99101.44
2022-12-31T13:37:22.451Z,99095.41
2022-12-31T13:39:52.070Z,99098.03
2022-12-31T13:42:23.334Z,99104.00
2022-12-31T13:44:51.890Z,99098.84
2022-12-31T13:47:21.365Z,99104.81
2022-12-31T13:50:20.335Z,99102.13
2022-12-31T13:52:51.523Z,99095.19
2022-12-31T13:55:27.843Z,99109.72
2022-12-31T13:57:57.977Z,99108.88
2022-12-31T14:00:26.826Z,99100.31
2022-12-31T14:03:00.627Z,99108.94
2022-12-31T14:05:39.403Z,99109.75
2022-12-31T14:08:06.568Z,99111.50
2022-12-31T14:10:55.979Z,99104.59
2022-12-31T14:13:41.275Z,99117.47
2022-12-31T14:16:34.269Z,99114.88
2022-12-31T14:19:00.763Z,99119.16
2022-12-31T14:21:31.353Z,99118.31
2022-12-31T14:24:09.764Z,99127.84
2022-12-31T14:26:40.701Z,99118.34
2022-12-31T14:29:07.349Z,99124.31
2022-12-31T14:31:49.340Z,99123.44
2022-12-31T14:34:17.097Z,99124.31
2022-12-31T14:37:02.512Z,99132.09
2022-12-31T14:39:34.479Z,99118.34
2022-12-31T14:42:03.967Z,99123.50
2022-12-31T14:44:36.528Z,99118.31
2022-12-31T14:47:27.352Z,99120.94
2022-12-31T14:50:00.150Z,99130.41
2022-12-31T14:52:32.865Z,99124.44
2022-12-31T14:55:17.740Z,99122.78
2022-12-31T15:00:40.686Z,99132.31
2022-12-31T15:03:13.515Z,99123.75
2022-12-31T15:05:55.172Z,99127.22
2022-12-31T15:08:30.619Z,99118.66
2022-12-31T15:11:04.796Z,99123.00
2022-12-31T15:13:51.533Z,99131.66
2022-12-31T15:16:35.598Z,99146.28
2022-12-31T15:19:17.454Z,99148.03
2022-12-31T15:21:58.397Z,99144.59
2022-12-31T15:24:28.467Z,99141.19
2022-12-31T15:26:56.692Z,99152.34
2022-12-31T15:29:29.393Z,99140.31
2022-12-31T15:31:56.615Z,99139.44
2022-12-31T15:34:32.606Z,99137.69
2022-12-31T15:37:00.554Z,99133.44
2022-12-31T15:39:42.563Z,99136.03
2022-12-31T15:42:40.636Z,99136.03
2022-12-31T15:45:14.657Z,99136.03
2022-12-31T15:47:43.157Z,99127.41
2022-12-31T15:50:15.421Z,99131.72
2022-12-31T15:52:43.280Z,99140.28
2022-12-31T15:55:19.981Z,99130.78
2022-12-31T15:57:46.885Z,99132.50
2022-12-31T16:00:17.078Z,99135.09
2022-12-31T16:02:44.545Z,99135.97
2022-12-31T16:05:22.233Z,99138.53
2022-12-31T16:08:00.100Z,99149.72
2022-12-31T16:10:31.925Z,99151.41
2022-12-31T16:12:59.600Z,99143.69
2022-12-31T16:15:28.436Z,99143.69
2022-12-31T16:18:02.996Z,99153.97
2022-12-31T16:20:31.148Z,99164.22
2022-12-31T16:22:58.685Z,99154.81
2022-12-31T16:25:33.378Z,99155.63
2022-12-31T16:28:04.373Z,99163.38
2022-12-31T16:30:32.492Z,99178.00
2022-12-31T16:33:00.509Z,99190.03
2022-12-31T16:35:29.646Z,99179.75
2022-12-31T16:38:02.842Z,99182.31
2022-12-31T16:40:31.141Z,99176.31
2022-12-31T16:42:58.371Z,99180.63
2022-12-31T16:45:30.520Z,99175.50
2022-12-31T16:47:58.877Z,99176.38
2022-12-31T16:50:28.836Z,99170.38
2022-12-31T16:53:02.800Z,99172.06
2022-12-31T16:55:30.571Z,99180.66
2022-12-31T16:58:17.301Z,99187.56
2022-12-31T17:00:43.869Z,99185.81
2022-12-31T17:03:19.604Z,99200.47
2022-12-31T17:06:04.844Z,99180.72
2022-12-31T17:08:49.791Z,99185.00
2022-12-31T17:11:23.326Z,99184.13
2022-12-31T17:13:54.821Z,99192.72
2022-12-31T17:16:23.897Z,99202.16
2022-12-31T17:18:50.930Z,99210.72
2022-12-31T17:21:17.535Z,99208.97
2022-12-31T17:23:50.084Z,99199.53
2022-12-31T17:26:22.326Z,99205.53
2022-12-31T17:28:50.809Z,99208.13
2022-12-31T17:31:28.552Z,99209.81
2022-12-31T17:34:04.160Z,99207.25
2022-12-31T17:36:30.646Z,99197.78
2022-12-31T17:39:12.841Z,99192.63
2022-12-31T17:41:39.262Z,99192.66
2022-12-31T17:44:07.101Z,99196.06
2022-12-31T17:46:38.663Z,99196.97
2022-12-31T17:49:05.269Z,99212.38
2022-12-31T17:51:31.740Z,99199.47
2022-12-31T17:53:59.883Z,99190.94
2022-12-31T17:56:26.537Z,99190.94
2022-12-31T17:58:53.867Z,99184.03
2022-12-31T18:01:21.941Z,99192.59
2022-12-31T18:03:48.918Z,99188.34
2022-12-31T18:06:17.088Z,99196.09
2022-12-31T18:08:43.857Z,99192.66
2022-12-31T18:11:23.608Z,99184.09
2022-12-31T18:13:50.490Z,99191.88
2022-12-31T18:16:17.271Z,99192.72
2022-12-31T18:18:45.376Z,99185.91
2022-12-31T18:21:22.303Z,99181.63
2022-12-31T18:23:49.073Z,99178.19
2022-12-31T18:26:16.821Z,99178.25
2022-12-31T18:28:43.748Z,99165.38
2022-12-31T18:31:21.928Z,99170.50
2022-12-31T18:33:49.578Z,99168.78
2022-12-31T18:36:17.591Z,99177.38
2022-12-31T18:38:44.352Z,99169.69
2022-12-31T18:41:16.923Z,99169.66
2022-12-31T18:43:43.459Z,99178.28
2022-12-31T18:46:12.479Z,99175.66
2022-12-31T18:48:41.492Z,99186.91
2022-12-31T18:51:13.187Z,99183.50
2022-12-31T18:53:39.684Z,99192.13
2022-12-31T18:56:06.707Z,99193.00
2022-12-31T18:58:34.264Z,99183.59
2022-12-31T19:01:00.786Z,99178.44
2022-12-31T19:03:28.257Z,99169.06
2022-12-31T19:05:54.880Z,99167.34
2022-12-31T19:08:22.103Z,99169.09
2022-12-31T19:10:49.608Z,99164.78
2022-12-31T19:13:17.219Z,99172.50
2022-12-31T19:15:43.732Z,99165.63
2022-12-31T19:18:11.271Z,99173.34
2022-12-31T19:20:38.576Z,99170.75
2022-12-31T19:23:05.170Z,99168.19
2022-12-31T19:25:33.942Z,99176.81
2022-12-31T19:28:04.036Z,99181.09
2022-12-31T19:30:31.600Z,99181.09
2022-12-31T19:32:58.315Z,99184.50
2022-12-31T19:35:25.355Z,99177.63
2022-12-31T19:37:52.663Z,99165.59
2022-12-31T19:40:24.092Z,99179.31
2022-12-31T19:42:51.227Z,99181.88
2022-12-31T19:45:19.031Z,99188.69
2022-12-31T19:47:46.231Z,99194.75
2022-12-31T19:50:17.755Z,99191.31
2022-12-31T19:52:45.652Z,99199.00
2022-12-31T19:55:13.307Z,99206.78
2022-12-31T19:57:40.021Z,99204.22
2022-12-31T20:00:06.933Z,99208.53
2022-12-31T20:02:33.448Z,99209.44
2022-12-31T20:05:00.095Z,99193.22
2022-12-31T20:07:27.373Z,99194.94
2022-12-31T20:09:53.996Z,99189.81
2022-12-31T20:12:21.096Z,99210.38
2022-12-31T20:14:47.503Z,99186.41
2022-12-31T20:17:14.130Z,99198.44
2022-12-31T20:19:40.622Z,99195.00
2022-12-31T20:22:07.077Z,99197.59
2022-12-31T20:24:33.502Z,99196.69
2022-12-31T20:26:59.998Z,99195.00
2022-12-31T20:29:26.557Z,99195.88
2022-12-31T20:31:53.066Z,99201.03
2022-12-31T20:34:19.539Z,99197.59
2022-12-31T20:36:46.053Z,99198.44
2022-12-31T20:39:12.696Z,99193.31
2022-12-31T20:41:39.332Z,99200.16
2022-12-31T20:44:05.940Z,99198.44
2022-12-31T20:46:34.810Z,99199.28
2022-12-31T20:49:02.593Z,99199.28
2022-12-31T20:51:30.060Z,99195.88
2022-12-31T20:53:58.578Z,99202.75
2022-12-31T20:56:25.522Z,99205.31
2022-12-31T20:58:52.005Z,99191.59
2022-12-31T21:01:18.693Z,99196.72
2022-12-31T21:06:33.544Z,99198.44
2022-12-31T21:09:00.715Z,99201.88
2022-12-31T21:11:45.873Z,99206.16
2022-12-31T21:14:12.348Z,99211.28
2022-12-31T21:16:38.851Z,99207.03
2022-12-31T21:19:05.662Z,99205.31
2022-12-31T21:21:32.203Z,99207.88
2022-12-31T21:23:58.919Z,99196.75
2022-12-31T21:26:25.427Z,99206.16
2022-12-31T21:28:52.744Z,99203.59
2022-12-31T21:31:19.320Z,99210.44
2022-12-31T21:33:46.507Z,99203.56
2022-12-31T21:36:13.051Z,99207.00
2022-12-31T21:38:39.668Z,99196.72
2022-12-31T21:41:07.328Z,99193.25
2022-12-31T21:43:33.785Z,99193.25
2022-12-31T21:46:04.985Z,99197.53
2022-12-31T21:48:31.798Z,99200.94
2022-12-31T21:51:08.586Z,99215.50
2022-12-31T21:53:37.138Z,99205.22
2022-12-31T21:56:09.937Z,99200.94
2022-12-31T21:58:37.580Z,99193.19
2022-12-31T22:01:23.132Z,99202.63
2022-12-31T22:03:50.050Z,99201.78
2022-12-31T22:06:21.116Z,99203.50
2022-12-31T22:08:49.307Z,99204.34
2022-12-31T22:11:16.831Z,99207.78
2022-12-31T22:13:43.358Z,99205.16
2022-12-31T22:16:09.877Z,99205.16
2022-12-31T22:18:39.088Z,99210.31
2022-12-31T22:21:17.868Z,99208.56
2022-12-31T22:23:46.867Z,99213.72
2022-12-31T22:26:22.693Z,99198.31
2022-12-31T22:28:50.162Z,99192.31
2022-12-31T22:31:26.483Z,99198.34
2022-12-31T22:33:53.242Z,99198.34
2022-12-31T22:36:23.105Z,99196.59
2022-12-31T22:38:50.923Z,99193.19
2022-12-31T22:41:18.846Z,99191.47
2022-12-31T22:43:46.709Z,99189.72
2022-12-31T22:46:14.457Z,99192.31
2022-12-31T22:48:41.993Z,99191.53
2022-12-31T22:51:08.861Z,99189.00
2022-12-31T22:53:35.931Z,99194.97
2022-12-31T22:56:03.063Z,99183.84
2022-12-31T22:58:29.875Z,99189.91
2022-12-31T23:00:56.378Z,99195.03
2022-12-31T23:03:25.144Z,99201.91
2022-12-31T23:05:52.489Z,99203.59
2022-12-31T23:08:23.307Z,99201.00
2022-12-31T23:11:00.382Z,99206.19
2022-12-31T23:13:51.150Z,99211.34
2022-12-31T23:16:37.266Z,99202.75
2022-12-31T23:19:23.452Z,99206.19
2022-12-31T23:22:08.611Z,99205.34
2022-12-31T23:24:35.149Z,99204.50
2022-12-31T23:27:01.678Z,99207.91
2022-12-31T23:29:28.143Z,99207.06
2022-12-31T23:31:56.076Z,99211.38
2022-12-31T23:34:22.648Z,99207.13
2022-12-31T23:36:49.153Z,99199.44
2022-12-31T23:39:16.940Z,99204.59
2022-12-31T23:41:43.420Z,99208.03
2022-12-31T23:44:11.994Z,99214.88
2022-12-31T23:46:38.803Z,99217.47
2022-12-31T23:49:05.406Z,99215.78
2022-12-31T23:51:31.925Z,99214.94
2022-12-31T23:53:58.533Z,99214.91
2022-12-31T23:56:25.020Z,99215.81
2022-12-31T23:58:55.401Z,99227.78
